createdAt,value
2024-03-19T00:00:03.162Z,22.90
2024-03-19T00:02:29.584Z,22.90
2024-03-19T00:04:55.866Z,22.90
2024-03-19T00:07:22.159Z,22.91
2024-03-19T00:09:48.565Z,22.86
2024-03-19T00:12:14.876Z,22.87
2024-03-19T00:14:41.340Z,22.87
2024-03-19T00:17:07.767Z,22.88
2024-03-19T00:19:34.020Z,22.88
2024-03-19T00:22:00.337Z,22.87
2024-03-19T00:24:26.707Z,22.86
2024-03-19T00:26:52.990Z,22.87
2024-03-19T00:29:19.266Z,22.86
2024-03-19T00:31:45.560Z,22.85
2024-03-19T00:34:11.989Z,22.84
2024-03-19T00:36:38.426Z,22.83
2024-03-19T00:39:04.718Z,22.84
2024-03-19T00:41:31.008Z,22.83
2024-03-19T00:43:57.319Z,22.81
2024-03-19T00:46:23.845Z,22.82
2024-03-19T00:48:50.269Z,22.81
2024-03-19T00:51:16.517Z,22.81
2024-03-19T00:53:42.996Z,22.82
2024-03-19T00:56:09.760Z,22.79
2024-03-19T00:58:36.264Z,22.79
2024-03-19T01:01:02.465Z,22.80
2024-03-19T01:03:28.969Z,22.79
2024-03-19T01:05:55.416Z,22.78
2024-03-19T01:08:21.679Z,22.78
2024-03-19T01:10:48.037Z,22.77
2024-03-19T01:13:14.318Z,22.77
2024-03-19T01:15:40.717Z,22.76
2024-03-19T01:18:06.987Z,22.75
2024-03-19T01:20:33.289Z,22.75
2024-03-19T01:23:00.498Z,22.75
2024-03-19T01:25:26.822Z,22.73
2024-03-19T01:27:53.412Z,22.73
2024-03-19T01:30:19.701Z,22.72
2024-03-19T01:32:46.036Z,22.72
2024-03-19T01:35:12.318Z,22.70
2024-03-19T01:37:38.728Z,22.71
2024-03-19T01:40:05.176Z,22.70
2024-03-19T01:42:31.617Z,22.70
2024-03-19T01:44:57.875Z,22.68
2024-03-19T01:47:24.263Z,22.67
2024-03-19T01:49:50.691Z,22.66
2024-03-19T01:52:17.049Z,22.67
2024-03-19T01:54:43.419Z,22.65
2024-03-19T01:57:09.770Z,22.66
2024-03-19T01:59:36.199Z,22.66
2024-03-19T02:02:02.477Z,22.65
2024-03-19T02:04:28.844Z,22.65
2024-03-19T02:06:55.187Z,22.64
2024-03-19T02:09:21.505Z,22.63
2024-03-19T02:11:47.859Z,22.63
2024-03-19T02:14:14.283Z,22.63
2024-03-19T02:16:40.632Z,22.63
2024-03-19T02:19:07.041Z,22.61
2024-03-19T02:21:33.385Z,22.62
2024-03-19T02:23:59.655Z,22.61
2024-03-19T02:26:26.127Z,22.61
2024-03-19T02:28:52.405Z,22.63
2024-03-19T02:31:18.727Z,22.62
2024-03-19T02:33:45.128Z,22.61
2024-03-19T02:36:11.585Z,22.58
2024-03-19T02:38:37.989Z,22.60
2024-03-19T02:41:04.261Z,22.58
2024-03-19T02:43:30.552Z,22.61
2024-03-19T02:45:56.815Z,22.57
2024-03-19T02:48:23.205Z,22.56
2024-03-19T02:50:49.646Z,22.56
2024-03-19T02:53:15.913Z,22.56
2024-03-19T02:55:42.321Z,22.57
2024-03-19T02:58:08.646Z,22.54
2024-03-19T03:00:35.059Z,22.54
2024-03-19T03:03:01.343Z,22.53
2024-03-19T03:05:27.745Z,22.53
2024-03-19T03:07:54.167Z,22.53
2024-03-19T03:10:20.475Z,22.54
2024-03-19T03:12:46.831Z,22.53
2024-03-19T03:15:13.274Z,22.52
2024-03-19T03:17:39.584Z,22.51
2024-03-19T03:20:05.804Z,22.49
2024-03-19T03:22:32.089Z,22.50
2024-03-19T03:24:58.375Z,22.49
2024-03-19T03:27:24.649Z,22.49
2024-03-19T03:29:51.025Z,22.48
2024-03-19T03:32:17.497Z,22.50
2024-03-19T03:34:43.835Z,22.48
2024-03-19T03:37:13.986Z,22.49
2024-03-19T03:39:36.746Z,22.48
2024-03-19T03:42:03.115Z,22.47
2024-03-19T03:44:29.536Z,22.46
2024-03-19T03:46:55.976Z,22.46
2024-03-19T03:49:22.465Z,22.46
2024-03-19T03:51:48.710Z,22.44
2024-03-19T03:54:15.001Z,22.47
2024-03-19T03:56:41.445Z,22.46
2024-03-19T03:59:07.683Z,22.44
2024-03-19T04:01:34.149Z,22.44
2024-03-19T04:04:00.485Z,22.43
2024-03-19T04:06:26.921Z,22.43
2024-03-19T04:08:53.289Z,22.42
2024-03-19T04:11:19.686Z,22.42
2024-03-19T04:13:46.124Z,22.41
2024-03-19T04:16:12.556Z,22.42
2024-03-19T04:18:39.038Z,22.42
2024-03-19T04:21:05.243Z,22.42
2024-03-19T04:23:31.524Z,22.41
2024-03-19T04:25:57.786Z,22.44
2024-03-19T04:28:24.181Z,22.43
2024-03-19T04:30:50.531Z,22.44
2024-03-19T04:33:16.973Z,22.46
2024-03-19T04:35:45.747Z,22.46
2024-03-19T04:38:09.684Z,22.48
2024-03-19T04:40:35.982Z,22.50
2024-03-19T04:43:02.378Z,22.49
2024-03-19T04:45:28.647Z,22.49
2024-03-19T04:47:55.210Z,22.50
2024-03-19T04:50:21.425Z,22.50
2024-03-19T04:52:47.823Z,22.51
2024-03-19T04:55:14.091Z,22.52
2024-03-19T04:57:40.479Z,22.51
2024-03-19T05:00:06.750Z,22.50
2024-03-19T05:02:33.089Z,22.50
2024-03-19T05:04:59.369Z,22.54
2024-03-19T05:07:25.747Z,22.50
2024-03-19T05:09:51.996Z,22.53
2024-03-19T05:12:18.478Z,22.52
2024-03-19T05:14:44.737Z,22.53
2024-03-19T05:17:11.042Z,22.54
2024-03-19T05:19:37.362Z,22.53
2024-03-19T05:22:03.635Z,22.55
2024-03-19T05:24:30.022Z,22.56
2024-03-19T05:26:56.294Z,22.55
2024-03-19T05:29:22.624Z,22.56
2024-03-19T05:31:49.086Z,22.56
2024-03-19T05:34:15.635Z,22.58
2024-03-19T05:36:41.972Z,22.60
2024-03-19T05:39:08.284Z,22.61
2024-03-19T05:41:34.605Z,22.66
2024-03-19T05:44:02.076Z,22.66
2024-03-19T05:46:27.203Z,22.64
2024-03-19T05:48:53.488Z,22.73
2024-03-19T05:51:19.832Z,22.76
2024-03-19T05:53:46.101Z,22.77
2024-03-19T05:56:12.432Z,22.76
2024-03-19T05:58:38.719Z,22.79
2024-03-19T06:01:05.012Z,22.81
2024-03-19T06:03:31.338Z,22.86
2024-03-19T06:05:57.618Z,22.93
2024-03-19T06:08:23.988Z,22.82
2024-03-19T06:10:50.244Z,22.94
2024-03-19T06:13:16.565Z,22.84
2024-03-19T06:15:42.842Z,22.86
2024-03-19T06:18:09.222Z,22.97
2024-03-19T06:20:35.562Z,22.93
2024-03-19T06:23:01.891Z,22.93
2024-03-19T06:25:28.171Z,22.92
2024-03-19T06:27:54.492Z,22.92
2024-03-19T06:30:20.744Z,23.00
2024-03-19T06:32:47.118Z,22.97
2024-03-19T06:35:13.413Z,23.00
2024-03-19T06:37:39.692Z,23.05
2024-03-19T06:40:06.107Z,23.01
2024-03-19T06:42:32.348Z,23.06
2024-03-19T06:44:58.626Z,23.09
2024-03-19T06:47:24.949Z,23.06
2024-03-19T06:49:51.276Z,23.08
2024-03-19T06:52:17.494Z,23.26
2024-03-19T06:54:45.131Z,23.28
2024-03-19T06:57:10.103Z,23.22
2024-03-19T06:59:36.389Z,23.21
2024-03-19T07:02:02.702Z,23.32
2024-03-19T07:04:29.001Z,23.24
2024-03-19T07:06:55.417Z,23.35
2024-03-19T07:09:21.833Z,23.37
2024-03-19T07:11:48.127Z,23.42
2024-03-19T07:14:14.434Z,23.35
2024-03-19T07:16:40.750Z,23.45
2024-03-19T07:19:07.124Z,23.44
2024-03-19T07:21:33.360Z,23.41
2024-03-19T07:23:59.657Z,23.42
2024-03-19T07:26:25.988Z,23.55
2024-03-19T07:28:52.372Z,23.51
2024-03-19T07:31:18.647Z,23.52
2024-03-19T07:33:45.026Z,23.39
2024-03-19T07:36:11.313Z,23.65
2024-03-19T07:38:37.633Z,23.59
2024-03-19T07:41:03.971Z,23.53
2024-03-19T07:43:30.289Z,23.44
2024-03-19T07:45:56.657Z,23.64
2024-03-19T07:48:22.930Z,23.68
2024-03-19T07:50:49.272Z,23.69
2024-03-19T07:53:17.153Z,23.60
2024-03-19T07:55:41.877Z,23.64
2024-03-19T07:58:08.195Z,23.70
2024-03-19T08:00:34.474Z,23.68
2024-03-19T08:03:00.827Z,23.76
2024-03-19T08:05:27.942Z,23.77
2024-03-19T08:07:53.419Z,23.80
2024-03-19T08:10:19.711Z,23.75
2024-03-19T08:12:46.018Z,23.72
2024-03-19T08:15:12.384Z,23.71
2024-03-19T08:17:38.645Z,23.76
2024-03-19T08:20:04.978Z,23.80
2024-03-19T08:22:31.382Z,23.87
2024-03-19T08:24:57.701Z,23.71
2024-03-19T08:27:24.126Z,23.65
2024-03-19T08:29:56.597Z,23.72
2024-03-19T08:32:16.910Z,23.70
2024-03-19T08:34:43.371Z,23.94
2024-03-19T08:37:09.703Z,23.88
2024-03-19T08:39:36.085Z,23.76
2024-03-19T08:42:05.255Z,23.75
2024-03-19T08:44:29.053Z,23.74
2024-03-19T08:46:55.339Z,23.74
2024-03-19T08:49:21.649Z,23.74
2024-03-19T08:51:47.953Z,23.91
2024-03-19T08:54:14.480Z,23.85
2024-03-19T08:56:40.559Z,23.79
2024-03-19T08:59:06.923Z,23.85
2024-03-19T09:01:33.263Z,24.00
2024-03-19T09:03:59.528Z,24.18
2024-03-19T09:06:25.866Z,24.10
2024-03-19T09:08:52.221Z,24.13
2024-03-19T09:11:20.599Z,24.24
2024-03-19T09:13:44.915Z,24.33
2024-03-19T09:16:11.291Z,24.27
2024-03-19T09:18:37.667Z,24.24
2024-03-19T09:21:04.013Z,24.21
2024-03-19T09:23:30.339Z,24.26
2024-03-19T09:25:56.617Z,24.33
2024-03-19T09:28:22.994Z,24.25
2024-03-19T09:30:49.317Z,24.31
2024-03-19T09:33:15.650Z,24.21
2024-03-19T09:35:41.953Z,24.31
2024-03-19T09:38:08.272Z,24.29
2024-03-19T09:40:34.666Z,24.19
2024-03-19T09:43:01.019Z,24.11
2024-03-19T09:45:27.312Z,24.12
2024-03-19T09:47:53.559Z,24.12
2024-03-19T09:50:19.921Z,24.09
2024-03-19T09:52:46.308Z,24.09
2024-03-19T09:55:12.538Z,24.06
2024-03-19T09:57:38.895Z,24.10
2024-03-19T10:00:05.302Z,24.02
2024-03-19T10:02:31.631Z,24.05
2024-03-19T10:04:57.857Z,24.08
2024-03-19T10:07:24.160Z,24.04
2024-03-19T10:09:50.445Z,24.01
2024-03-19T10:12:16.753Z,23.99
2024-03-19T10:14:43.081Z,24.04
2024-03-19T10:17:09.399Z,24.00
2024-03-19T10:19:35.657Z,23.99
2024-03-19T10:22:02.000Z,23.94
2024-03-19T10:24:28.360Z,23.99
2024-03-19T10:26:54.877Z,23.92
2024-03-19T10:29:20.947Z,24.05
2024-03-19T10:31:47.311Z,24.04
2024-03-19T10:34:13.634Z,23.96
2024-03-19T10:36:39.908Z,23.95
2024-03-19T10:39:06.378Z,24.02
2024-03-19T10:41:32.612Z,23.98
2024-03-19T10:43:59.141Z,23.96
2024-03-19T10:46:25.429Z,23.92
2024-03-19T10:48:51.750Z,23.89
2024-03-19T10:51:18.123Z,23.89
2024-03-19T10:53:44.358Z,23.95
2024-03-19T10:56:10.738Z,23.92
2024-03-19T10:58:37.174Z,23.89
2024-03-19T11:01:03.559Z,23.94
2024-03-19T11:03:29.896Z,23.90
2024-03-19T11:05:56.313Z,23.90
2024-03-19T11:08:22.584Z,23.92
2024-03-19T11:10:49.091Z,23.91
2024-03-19T11:13:15.349Z,23.92
2024-03-19T11:15:41.639Z,23.94
2024-03-19T11:18:07.958Z,23.95
2024-03-19T11:20:34.336Z,23.92
2024-03-19T11:23:00.765Z,23.96
2024-03-19T11:25:27.199Z,23.94
2024-03-19T11:27:53.465Z,23.95
2024-03-19T11:30:19.788Z,23.94
2024-03-19T11:32:46.225Z,23.94
2024-03-19T11:35:12.566Z,23.96
2024-03-19T11:37:39.035Z,23.99
2024-03-19T11:40:05.464Z,23.97
2024-03-19T11:42:31.747Z,23.99
2024-03-19T11:44:58.185Z,23.97
2024-03-19T11:47:24.421Z,23.97
2024-03-19T11:49:50.812Z,24.01
2024-03-19T11:52:17.099Z,24.00
2024-03-19T11:54:43.487Z,24.06
2024-03-19T11:57:09.774Z,24.13
2024-03-19T11:59:36.133Z,24.14
2024-03-19T12:02:02.443Z,24.21
2024-03-19T12:04:28.828Z,24.20
2024-03-19T12:06:55.109Z,24.21
2024-03-19T12:09:21.400Z,24.20
2024-03-19T12:11:47.784Z,24.28
2024-03-19T12:14:14.233Z,24.30
2024-03-19T12:16:40.541Z,24.29
2024-03-19T12:19:06.912Z,24.36
2024-03-19T12:21:33.330Z,24.28
2024-03-19T12:23:59.789Z,24.28
2024-03-19T12:26:26.088Z,24.27
2024-03-19T12:28:52.578Z,24.29
2024-03-19T12:31:18.978Z,24.30
2024-03-19T12:33:45.179Z,24.33
2024-03-19T12:36:11.778Z,24.32
2024-03-19T12:38:38.117Z,24.31
2024-03-19T12:41:04.373Z,24.34
2024-03-19T12:43:30.865Z,24.34
2024-03-19T12:45:57.261Z,24.33
2024-03-19T12:48:23.569Z,24.33
2024-03-19T12:50:49.897Z,24.33
2024-03-19T12:53:16.243Z,24.34
2024-03-19T12:55:42.669Z,24.42
2024-03-19T12:58:09.000Z,24.40
2024-03-19T13:00:35.302Z,24.39
2024-03-19T13:03:01.681Z,24.41
2024-03-19T13:05:27.934Z,24.46
2024-03-19T13:07:54.390Z,24.44
2024-03-19T13:10:20.616Z,24.47
2024-03-19T13:12:47.037Z,24.50
2024-03-19T13:15:13.268Z,24.53
2024-03-19T13:17:39.566Z,24.58
2024-03-19T13:20:05.952Z,24.57
2024-03-19T13:22:32.519Z,24.60
2024-03-19T13:24:58.951Z,24.60
2024-03-19T13:27:25.210Z,24.57
2024-03-19T13:29:51.548Z,24.59
2024-03-19T13:32:17.778Z,24.58
2024-03-19T13:34:44.920Z,24.58
2024-03-19T13:37:11.311Z,24.58
2024-03-19T13:39:37.617Z,24.58
2024-03-19T13:42:04.156Z,24.58
2024-03-19T13:44:30.509Z,24.54
2024-03-19T13:46:56.926Z,24.53
2024-03-19T13:49:23.271Z,24.55
2024-03-19T13:51:49.700Z,24.51
2024-03-19T13:54:15.993Z,24.53
2024-03-19T13:56:43.796Z,24.53
2024-03-19T13:59:08.659Z,24.53
2024-03-19T14:01:35.080Z,24.56
2024-03-19T14:04:01.452Z,24.54
2024-03-19T14:06:27.889Z,24.50
2024-03-19T14:08:54.333Z,24.48
2024-03-19T14:11:20.645Z,24.49
2024-03-19T14:13:46.959Z,24.49
2024-03-19T14:16:13.483Z,24.50
2024-03-19T14:18:40.031Z,24.51
2024-03-19T14:21:06.335Z,24.51
2024-03-19T14:23:33.246Z,24.49
2024-03-19T14:25:59.706Z,24.49
2024-03-19T14:28:25.989Z,24.49
2024-03-19T14:30:52.479Z,24.50
2024-03-19T14:33:20.470Z,24.51
2024-03-19T14:35:45.087Z,24.53
2024-03-19T14:38:11.508Z,24.50
2024-03-19T14:40:38.008Z,24.46
2024-03-19T14:43:04.479Z,24.48
2024-03-19T14:45:30.839Z,24.47
2024-03-19T14:48:06.499Z,24.49
2024-03-19T14:50:23.542Z,24.46
2024-03-19T14:52:49.933Z,24.47
2024-03-19T14:55:16.360Z,24.46
2024-03-19T14:57:42.603Z,24.45
2024-03-19T15:00:09.061Z,24.44
2024-03-19T15:02:35.447Z,24.46
2024-03-19T15:05:01.767Z,24.46
2024-03-19T15:07:28.222Z,24.45
2024-03-19T15:09:54.631Z,24.44
2024-03-19T15:12:21.114Z,24.42
2024-03-19T15:14:47.646Z,24.43
2024-03-19T15:17:14.036Z,24.42
2024-03-19T15:19:40.438Z,24.41
2024-03-19T15:22:06.747Z,24.42
2024-03-19T15:24:33.126Z,24.42
2024-03-19T15:26:59.564Z,24.41
2024-03-19T15:29:25.835Z,24.39
2024-03-19T15:31:52.122Z,24.40
2024-03-19T15:34:18.430Z,24.39
2024-03-19T15:36:44.777Z,24.35
2024-03-19T15:39:11.241Z,24.38
2024-03-19T15:41:37.620Z,24.33
2024-03-19T15:44:03.923Z,24.34
2024-03-19T15:46:30.313Z,24.31
2024-03-19T15:48:56.741Z,24.32
2024-03-19T15:51:23.043Z,24.31
2024-03-19T15:53:49.388Z,24.30
2024-03-19T15:56:15.824Z,24.27
2024-03-19T15:58:42.125Z,24.28
2024-03-19T16:01:08.419Z,24.28
2024-03-19T16:03:34.727Z,24.26
2024-03-19T16:06:01.154Z,24.25
2024-03-19T16:08:27.485Z,24.25
2024-03-19T16:10:53.819Z,24.26
2024-03-19T16:13:20.083Z,24.25
2024-03-19T16:15:46.462Z,24.25
2024-03-19T16:18:12.719Z,24.25
2024-03-19T16:20:39.125Z,24.24
2024-03-19T16:23:05.383Z,24.24
2024-03-19T16:25:31.857Z,24.23
2024-03-19T16:27:58.240Z,24.19
2024-03-19T16:30:24.643Z,24.18
2024-03-19T16:32:51.095Z,24.17
2024-03-19T16:35:17.604Z,24.18
2024-03-19T16:37:46.240Z,24.18
2024-03-19T16:40:10.421Z,24.16
2024-03-19T16:42:36.685Z,24.17
2024-03-19T16:45:03.134Z,24.16
2024-03-19T16:47:29.400Z,24.15
2024-03-19T16:49:55.869Z,24.14
2024-03-19T16:52:22.228Z,24.16
2024-03-19T16:54:48.579Z,24.14
2024-03-19T16:57:14.914Z,24.11
2024-03-19T16:59:41.445Z,24.11
2024-03-19T17:02:07.946Z,24.09
2024-03-19T17:04:34.220Z,24.04
2024-03-19T17:07:00.490Z,24.04
2024-03-19T17:09:26.874Z,24.02
2024-03-19T17:11:53.200Z,24.05
2024-03-19T17:14:19.445Z,24.04
2024-03-19T17:16:45.848Z,24.01
2024-03-19T17:19:12.185Z,23.99
2024-03-19T17:21:38.499Z,23.97
2024-03-19T17:24:04.851Z,23.97
2024-03-19T17:26:31.163Z,23.95
2024-03-19T17:28:57.604Z,23.94
2024-03-19T17:31:24.043Z,23.91
2024-03-19T17:33:50.323Z,23.92
2024-03-19T17:36:16.577Z,23.91
2024-03-19T17:38:42.857Z,23.89
2024-03-19T17:41:09.162Z,23.89
2024-03-19T17:43:35.589Z,23.88
2024-03-19T17:46:01.845Z,23.86
2024-03-19T17:48:28.127Z,23.86
2024-03-19T17:50:54.486Z,23.84
2024-03-19T17:53:20.903Z,23.84
2024-03-19T17:55:47.241Z,23.83
2024-03-19T17:58:13.733Z,23.83
2024-03-19T18:00:40.116Z,23.80
2024-03-19T18:03:06.557Z,23.79
2024-03-19T18:05:32.981Z,23.77
2024-03-19T18:07:59.256Z,23.76
2024-03-19T18:10:25.671Z,23.74
2024-03-19T18:12:51.949Z,23.75
2024-03-19T18:15:18.224Z,23.74
2024-03-19T18:17:44.626Z,23.75
2024-03-19T18:20:10.937Z,23.73
2024-03-19T18:22:37.195Z,23.70
2024-03-19T18:25:03.613Z,23.70
2024-03-19T18:27:29.919Z,23.67
2024-03-19T18:29:56.287Z,23.68
2024-03-19T18:32:22.711Z,23.67
2024-03-19T18:34:49.084Z,23.64
2024-03-19T18:37:15.473Z,23.64
2024-03-19T18:39:41.913Z,23.64
2024-03-19T18:42:08.377Z,23.64
2024-03-19T18:44:34.789Z,23.60
2024-03-19T18:47:02.354Z,23.60
2024-03-19T18:49:27.665Z,23.59
2024-03-19T18:51:53.954Z,23.59
2024-03-19T18:54:20.298Z,23.58
2024-03-19T18:56:46.728Z,23.58
2024-03-19T18:59:13.069Z,23.58
2024-03-19T19:01:39.562Z,23.56
2024-03-19T19:04:05.783Z,23.55
2024-03-19T19:06:32.068Z,23.54
2024-03-19T19:08:58.585Z,23.55
2024-03-19T19:11:24.876Z,23.53
2024-03-19T19:13:51.162Z,23.52
2024-03-19T19:16:17.645Z,23.53
2024-03-19T19:18:44.062Z,23.49
2024-03-19T19:21:10.293Z,23.47
2024-03-19T19:23:36.736Z,23.49
2024-03-19T19:26:03.115Z,23.47
2024-03-19T19:28:29.390Z,23.45
2024-03-19T19:30:55.665Z,23.45
2024-03-19T19:33:22.107Z,23.42
2024-03-19T19:35:48.514Z,23.41
2024-03-19T19:38:14.789Z,23.42
2024-03-19T19:40:41.176Z,23.42
2024-03-19T19:43:07.515Z,23.41
2024-03-19T19:45:33.799Z,23.41
2024-03-19T19:48:00.137Z,23.39
2024-03-19T19:50:26.361Z,23.35
2024-03-19T19:52:52.640Z,23.34
2024-03-19T19:55:18.932Z,23.31
2024-03-19T19:57:45.304Z,23.32
2024-03-19T20:00:11.716Z,23.29
2024-03-19T20:02:38.232Z,23.27
2024-03-19T20:05:05.885Z,23.26
2024-03-19T20:07:31.026Z,23.23
2024-03-19T20:09:57.402Z,23.24
2024-03-19T20:12:23.647Z,23.23
2024-03-19T20:14:50.085Z,23.20
2024-03-19T20:17:16.524Z,23.18
2024-03-19T20:19:42.955Z,23.17
2024-03-19T20:22:09.437Z,23.14
2024-03-19T20:24:35.916Z,23.14
2024-03-19T20:27:02.361Z,23.14
2024-03-19T20:29:28.579Z,23.12
2024-03-19T20:31:54.942Z,23.10
2024-03-19T20:34:21.451Z,23.09
2024-03-19T20:36:47.814Z,23.07
2024-03-19T20:39:14.156Z,23.08
2024-03-19T20:41:40.602Z,23.07
2024-03-19T20:44:06.998Z,23.03
2024-03-19T20:46:36.104Z,23.06
2024-03-19T20:49:02.569Z,23.03
2024-03-19T20:51:31.182Z,23.02
2024-03-19T20:53:55.148Z,23.02
2024-03-19T20:56:21.441Z,23.00
2024-03-19T20:58:47.857Z,22.99
2024-03-19T21:01:14.188Z,22.98
2024-03-19T21:03:40.616Z,22.96
2024-03-19T21:06:06.905Z,22.96
2024-03-19T21:08:33.168Z,22.94
2024-03-19T21:10:59.435Z,22.94
2024-03-19T21:13:25.835Z,22.92
2024-03-19T21:15:52.267Z,22.92
2024-03-19T21:18:18.572Z,22.90
2024-03-19T21:20:44.797Z,22.90
2024-03-19T21:23:11.107Z,22.87
2024-03-19T21:25:37.404Z,22.87
2024-03-19T21:28:03.662Z,22.87
2024-03-19T21:30:30.043Z,22.85
2024-03-19T21:32:56.599Z,22.85
2024-03-19T21:35:22.927Z,22.85
2024-03-19T21:37:49.180Z,22.84
2024-03-19T21:40:15.497Z,22.82
2024-03-19T21:42:41.900Z,22.82
2024-03-19T21:45:08.097Z,22.81
2024-03-19T21:47:34.457Z,22.79
2024-03-19T21:50:00.790Z,22.79
2024-03-19T21:52:27.068Z,22.76
2024-03-19T21:54:53.448Z,22.77
2024-03-19T21:57:19.772Z,22.76
2024-03-19T21:59:46.121Z,22.75
2024-03-19T22:02:12.538Z,22.75
2024-03-19T22:04:38.987Z,22.70
2024-03-19T22:07:05.272Z,22.71
2024-03-19T22:09:31.583Z,22.69
2024-03-19T22:11:57.953Z,22.70
2024-03-19T22:14:24.243Z,22.67
2024-03-19T22:16:50.633Z,22.66
2024-03-19T22:19:16.911Z,22.67
2024-03-19T22:21:43.184Z,22.64
2024-03-19T22:24:09.504Z,22.66
2024-03-19T22:26:35.830Z,22.64
2024-03-19T22:29:02.132Z,22.63
2024-03-19T22:31:28.435Z,22.62
2024-03-19T22:33:54.695Z,22.61
2024-03-19T22:36:21.163Z,22.60
2024-03-19T22:38:47.448Z,22.58
2024-03-19T22:41:13.826Z,22.57
2024-03-19T22:43:40.265Z,22.58
2024-03-19T22:46:06.769Z,22.56
2024-03-19T22:48:33.131Z,22.56
2024-03-19T22:50:59.569Z,22.54
2024-03-19T22:53:25.887Z,22.54
2024-03-19T22:55:52.217Z,22.53
2024-03-19T22:58:18.548Z,22.53
2024-03-19T23:00:44.836Z,22.51
2024-03-19T23:03:11.112Z,22.50
2024-03-19T23:05:37.433Z,22.50
2024-03-19T23:08:03.692Z,22.51
2024-03-19T23:10:30.102Z,22.48
2024-03-19T23:12:56.429Z,22.49
2024-03-19T23:15:22.948Z,22.46
2024-03-19T23:17:49.189Z,22.46
2024-03-19T23:20:15.648Z,22.43
2024-03-19T23:22:42.068Z,22.42
2024-03-19T23:25:08.534Z,22.43
2024-03-19T23:27:34.757Z,22.42
2024-03-19T23:30:01.136Z,22.42
2024-03-19T23:32:27.597Z,22.41
2024-03-19T23:34:54.031Z,22.39
2024-03-19T23:37:20.459Z,22.39
2024-03-19T23:39:46.765Z,22.38
2024-03-19T23:42:13.221Z,22.38
2024-03-19T23:44:39.508Z,22.35
2024-03-19T23:47:05.883Z,22.36
2024-03-19T23:49:32.324Z,22.37
2024-03-19T23:52:01.045Z,22.35
2024-03-19T23:54:27.330Z,22.33
2024-03-19T23:56:53.607Z,22.34
2024-03-19T23:59:20.018Z,22.33
